sensor_id;sensor_type;location;lat;lon;timestamp;temperature;humidity
5055;DHT22;13829;48.990;8.346;2022-09-09T00:00:23;16.80;99.90
5055;DHT22;13829;48.990;8.346;2022-09-09T00:03:01;16.80;99.90
5055;DHT22;13829;48.990;8.346;2022-09-09T00:05:43;16.70;99.90
5055;DHT22;13829;48.990;8.346;2022-09-09T00:08:19;16.70;99.90
5055;DHT22;13829;48.990;8.346;2022-09-09T00:10:51;16.70;99.90
5055;DHT22;13829;48.990;8.346;2022-09-09T00:13:30;16.70;99.90
5055;DHT22;13829;48.990;8.346;2022-09-09T00:16:04;16.70;99.90
5055;DHT22;13829;48.990;8.346;2022-09-09T00:18:50;16.70;99.90
5055;DHT22;13829;48.990;8.346;2022-09-09T00:21:25;16.70;99.90
5055;DHT22;13829;48.990;8.346;2022-09-09T00:23:59;16.70;99.90
5055;DHT22;13829;48.990;8.346;2022-09-09T00:26:38;16.70;99.90
5055;DHT22;13829;48.990;8.346;2022-09-09T00:29:14;16.80;99.90
5055;DHT22;13829;48.990;8.346;2022-09-09T00:31:49;16.90;99.90
5055;DHT22;13829;48.990;8.346;2022-09-09T00:34:23;16.90;99.90
5055;DHT22;13829;48.990;8.346;2022-09-09T00:36:54;16.90;99.90
5055;DHT22;13829;48.990;8.346;2022-09-09T00:39:30;16.90;99.90
5055;DHT22;13829;48.990;8.346;2022-09-09T00:42:12;16.90;99.90
5055;DHT22;13829;48.990;8.346;2022-09-09T00:44:53;16.90;99.90
5055;DHT22;13829;48.990;8.346;2022-09-09T00:47:46;16.90;99.90
5055;DHT22;13829;48.990;8.346;2022-09-09T00:50:42;16.90;99.90
5055;DHT22;13829;48.990;8.346;2022-09-09T00:53:25;17.00;99.90
5055;DHT22;13829;48.990;8.346;2022-09-09T00:56:10;17.00;99.90
5055;DHT22;13829;48.990;8.346;2022-09-09T00:58:42;17.00;99.90
5055;DHT22;13829;48.990;8.346;2022-09-09T01:01:12;17.00;99.90
5055;DHT22;13829;48.990;8.346;2022-09-09T01:03:45;17.10;99.90
5055;DHT22;13829;48.990;8.346;2022-09-09T01:06:24;17.10;99.90
5055;DHT22;13829;48.990;8.346;2022-09-09T01:09:08;17.10;99.90
5055;DHT22;13829;48.990;8.346;2022-09-09T01:11:52;17.10;99.90
5055;DHT22;13829;48.990;8.346;2022-09-09T01:14:40;17.10;99.90
5055;DHT22;13829;48.990;8.346;2022-09-09T01:17:14;17.20;99.90
5055;DHT22;13829;48.990;8.346;2022-09-09T01:20:01;17.20;99.90
5055;DHT22;13829;48.990;8.346;2022-09-09T01:22:39;17.20;99.90
5055;DHT22;13829;48.990;8.346;2022-09-09T01:26:15;17.30;99.90
5055;DHT22;13829;48.990;8.346;2022-09-09T01:28:47;17.40;99.90
5055;DHT22;13829;48.990;8.346;2022-09-09T01:31:21;17.50;99.90
5055;DHT22;13829;48.990;8.346;2022-09-09T01:33:52;17.50;99.90
5055;DHT22;13829;48.990;8.346;2022-09-09T01:36:28;17.50;99.90
5055;DHT22;13829;48.990;8.346;2022-09-09T01:38:59;17.40;99.90
5055;DHT22;13829;48.990;8.346;2022-09-09T01:41:27;17.30;99.90
5055;DHT22;13829;48.990;8.346;2022-09-09T01:43:55;17.30;99.90
5055;DHT22;13829;48.990;8.346;2022-09-09T01:46:23;17.20;99.90
5055;DHT22;13829;48.990;8.346;2022-09-09T01:48:52;17.20;99.90
5055;DHT22;13829;48.990;8.346;2022-09-09T01:51:20;17.10;99.90
5055;DHT22;13829;48.990;8.346;2022-09-09T01:53:48;17.00;99.90
5055;DHT22;13829;48.990;8.346;2022-09-09T01:56:28;17.00;99.90
5055;DHT22;13829;48.990;8.346;2022-09-09T01:59:28;17.00;99.90
5055;DHT22;13829;48.990;8.346;2022-09-09T02:02:11;17.00;99.90
5055;DHT22;13829;48.990;8.346;2022-09-09T02:04:45;16.80;99.90
5055;DHT22;13829;48.990;8.346;2022-09-09T02:07:23;16.90;99.90
5055;DHT22;13829;48.990;8.346;2022-09-09T02:10:10;16.90;99.90
5055;DHT22;13829;48.990;8.346;2022-09-09T02:12:47;16.80;99.90
5055;DHT22;13829;48.990;8.346;2022-09-09T02:15:22;16.80;99.90
5055;DHT22;13829;48.990;8.346;2022-09-09T02:17:52;16.80;99.90
5055;DHT22;13829;48.990;8.346;2022-09-09T02:20:25;16.60;99.90
5055;DHT22;13829;48.990;8.346;2022-09-09T02:22:56;16.50;99.90
5055;DHT22;13829;48.990;8.346;2022-09-09T02:25:26;16.50;99.90
5055;DHT22;13829;48.990;8.346;2022-09-09T02:27:57;16.40;99.90
5055;DHT22;13829;48.990;8.346;2022-09-09T02:30:25;16.40;99.90
5055;DHT22;13829;48.990;8.346;2022-09-09T02:32:56;16.30;99.90
5055;DHT22;13829;48.990;8.346;2022-09-09T02:35:28;16.30;99.90
5055;DHT22;13829;48.990;8.346;2022-09-09T02:38:01;16.30;99.90
5055;DHT22;13829;48.990;8.346;2022-09-09T02:40:30;16.30;99.90
5055;DHT22;13829;48.990;8.346;2022-09-09T02:42:58;16.20;99.90
5055;DHT22;13829;48.990;8.346;2022-09-09T02:45:31;16.20;99.90
5055;DHT22;13829;48.990;8.346;2022-09-09T02:48:11;16.20;99.90
5055;DHT22;13829;48.990;8.346;2022-09-09T02:50:52;16.20;99.90
5055;DHT22;13829;48.990;8.346;2022-09-09T02:53:32;16.20;99.90
5055;DHT22;13829;48.990;8.346;2022-09-09T02:56:09;16.20;99.90
5055;DHT22;13829;48.990;8.346;2022-09-09T02:58:43;16.20;99.90
5055;DHT22;13829;48.990;8.346;2022-09-09T03:01:11;16.10;99.90
5055;DHT22;13829;48.990;8.346;2022-09-09T03:03:39;16.10;99.90
5055;DHT22;13829;48.990;8.346;2022-09-09T03:06:07;16.10;99.90
5055;DHT22;13829;48.990;8.346;2022-09-09T03:08:34;16.10;99.90
5055;DHT22;13829;48.990;8.346;2022-09-09T03:11:01;16.10;99.90
5055;DHT22;13829;48.990;8.346;2022-09-09T03:13:28;16.10;99.90
5055;DHT22;13829;48.990;8.346;2022-09-09T03:15:56;16.10;99.90
5055;DHT22;13829;48.990;8.346;2022-09-09T03:18:23;16.10;99.90
5055;DHT22;13829;48.990;8.346;2022-09-09T03:20:50;16.10;99.90
5055;DHT22;13829;48.990;8.346;2022-09-09T03:23:19;16.00;99.90
5055;DHT22;13829;48.990;8.346;2022-09-09T03:25:47;16.00;99.90
5055;DHT22;13829;48.990;8.346;2022-09-09T03:28:14;15.90;99.90
5055;DHT22;13829;48.990;8.346;2022-09-09T03:30:42;15.90;99.90
5055;DHT22;13829;48.990;8.346;2022-09-09T03:33:10;15.90;99.90
5055;DHT22;13829;48.990;8.346;2022-09-09T03:35:37;15.80;99.90
5055;DHT22;13829;48.990;8.346;2022-09-09T03:38:05;15.90;99.90
5055;DHT22;13829;48.990;8.346;2022-09-09T03:40:32;15.90;99.90
5055;DHT22;13829;48.990;8.346;2022-09-09T03:42:58;15.90;99.90
5055;DHT22;13829;48.990;8.346;2022-09-09T03:45:25;15.90;99.90
5055;DHT22;13829;48.990;8.346;2022-09-09T03:47:52;15.90;99.90
5055;DHT22;13829;48.990;8.346;2022-09-09T03:50:21;15.80;99.90
5055;DHT22;13829;48.990;8.346;2022-09-09T03:52:49;15.70;99.90
5055;DHT22;13829;48.990;8.346;2022-09-09T03:55:16;15.70;99.90
5055;DHT22;13829;48.990;8.346;2022-09-09T03:57:43;15.70;99.90
5055;DHT22;13829;48.990;8.346;2022-09-09T04:00:10;15.70;99.90
5055;DHT22;13829;48.990;8.346;2022-09-09T04:02:38;15.70;99.90
5055;DHT22;13829;48.990;8.346;2022-09-09T04:05:05;15.70;99.90
5055;DHT22;13829;48.990;8.346;2022-09-09T04:07:34;15.70;99.90
5055;DHT22;13829;48.990;8.346;2022-09-09T04:10:01;15.80;99.90
5055;DHT22;13829;48.990;8.346;2022-09-09T04:12:28;15.80;99.90
5055;DHT22;13829;48.990;8.346;2022-09-09T04:14:55;15.80;99.90
5055;DHT22;13829;48.990;8.346;2022-09-09T04:17:22;15.90;99.90
5055;DHT22;13829;48.990;8.346;2022-09-09T04:19:49;15.90;99.90
5055;DHT22;13829;48.990;8.346;2022-09-09T04:22:16;16.00;99.90
5055;DHT22;13829;48.990;8.346;2022-09-09T04:24:44;16.00;99.90
5055;DHT22;13829;48.990;8.346;2022-09-09T04:27:11;16.10;99.90
5055;DHT22;13829;48.990;8.346;2022-09-09T04:29:38;16.10;99.90
5055;DHT22;13829;48.990;8.346;2022-09-09T04:32:05;16.20;99.90
5055;DHT22;13829;48.990;8.346;2022-09-09T04:34:32;16.20;99.90
5055;DHT22;13829;48.990;8.346;2022-09-09T04:36:59;16.20;99.90
5055;DHT22;13829;48.990;8.346;2022-09-09T04:39:26;16.20;99.90
5055;DHT22;13829;48.990;8.346;2022-09-09T04:41:54;16.20;99.90
5055;DHT22;13829;48.990;8.346;2022-09-09T04:44:21;16.20;99.90
5055;DHT22;13829;48.990;8.346;2022-09-09T04:46:48;16.30;99.90
5055;DHT22;13829;48.990;8.346;2022-09-09T04:49:15;16.30;99.90
5055;DHT22;13829;48.990;8.346;2022-09-09T04:51:43;16.40;99.90
5055;DHT22;13829;48.990;8.346;2022-09-09T04:54:11;16.40;99.90
5055;DHT22;13829;48.990;8.346;2022-09-09T04:56:38;16.40;99.90
5055;DHT22;13829;48.990;8.346;2022-09-09T04:59:08;16.50;99.90
5055;DHT22;13829;48.990;8.346;2022-09-09T05:01:35;16.50;99.90
5055;DHT22;13829;48.990;8.346;2022-09-09T05:04:02;16.50;99.90
5055;DHT22;13829;48.990;8.346;2022-09-09T05:06:29;16.60;99.90
5055;DHT22;13829;48.990;8.346;2022-09-09T05:08:56;16.60;99.90
5055;DHT22;13829;48.990;8.346;2022-09-09T05:11:25;16.60;99.90
5055;DHT22;13829;48.990;8.346;2022-09-09T05:13:55;16.70;99.90
5055;DHT22;13829;48.990;8.346;2022-09-09T05:16:24;16.70;99.90
5055;DHT22;13829;48.990;8.346;2022-09-09T05:18:51;16.70;99.90
5055;DHT22;13829;48.990;8.346;2022-09-09T05:21:21;16.70;99.90
5055;DHT22;13829;48.990;8.346;2022-09-09T05:23:50;16.70;99.90
5055;DHT22;13829;48.990;8.346;2022-09-09T05:26:20;16.70;99.90
5055;DHT22;13829;48.990;8.346;2022-09-09T05:28:48;16.70;99.90
5055;DHT22;13829;48.990;8.346;2022-09-09T05:31:17;16.70;99.90
5055;DHT22;13829;48.990;8.346;2022-09-09T05:33:47;16.80;99.90
5055;DHT22;13829;48.990;8.346;2022-09-09T05:36:16;16.80;99.90
5055;DHT22;13829;48.990;8.346;2022-09-09T05:38:45;16.80;99.90
5055;DHT22;13829;48.990;8.346;2022-09-09T05:41:13;16.80;99.90
5055;DHT22;13829;48.990;8.346;2022-09-09T05:43:41;16.90;99.90
5055;DHT22;13829;48.990;8.346;2022-09-09T05:46:11;16.90;99.90
5055;DHT22;13829;48.990;8.346;2022-09-09T05:48:41;16.90;99.90
5055;DHT22;13829;48.990;8.346;2022-09-09T05:51:14;16.80;99.90
5055;DHT22;13829;48.990;8.346;2022-09-09T05:53:43;16.90;99.90
5055;DHT22;13829;48.990;8.346;2022-09-09T05:56:12;17.00;99.90
5055;DHT22;13829;48.990;8.346;2022-09-09T05:58:41;17.20;99.90
5055;DHT22;13829;48.990;8.346;2022-09-09T06:01:11;17.50;99.90
5055;DHT22;13829;48.990;8.346;2022-09-09T06:03:40;17.70;99.90
5055;DHT22;13829;48.990;8.346;2022-09-09T06:06:10;17.80;99.90
5055;DHT22;13829;48.990;8.346;2022-09-09T06:08:42;17.80;99.90
5055;DHT22;13829;48.990;8.346;2022-09-09T06:11:12;17.90;99.90
5055;DHT22;13829;48.990;8.346;2022-09-09T06:13:41;17.70;99.90
5055;DHT22;13829;48.990;8.346;2022-09-09T06:16:09;17.70;99.90
5055;DHT22;13829;48.990;8.346;2022-09-09T06:18:40;17.70;99.90
5055;DHT22;13829;48.990;8.346;2022-09-09T06:21:11;17.80;99.90
5055;DHT22;13829;48.990;8.346;2022-09-09T06:23:45;17.70;99.90
5055;DHT22;13829;48.990;8.346;2022-09-09T06:26:14;17.70;99.90
5055;DHT22;13829;48.990;8.346;2022-09-09T06:28:44;17.70;99.90
5055;DHT22;13829;48.990;8.346;2022-09-09T06:31:14;17.70;99.90
5055;DHT22;13829;48.990;8.346;2022-09-09T06:33:47;17.80;99.90
5055;DHT22;13829;48.990;8.346;2022-09-09T06:36:16;18.00;99.90
5055;DHT22;13829;48.990;8.346;2022-09-09T06:38:46;18.10;99.90
5055;DHT22;13829;48.990;8.346;2022-09-09T06:41:15;18.10;99.90
5055;DHT22;13829;48.990;8.346;2022-09-09T06:43:44;18.30;99.90
5055;DHT22;13829;48.990;8.346;2022-09-09T06:46:13;18.40;99.90
5055;DHT22;13829;48.990;8.346;2022-09-09T06:48:42;18.40;99.90
5055;DHT22;13829;48.990;8.346;2022-09-09T06:51:12;18.50;99.90
5055;DHT22;13829;48.990;8.346;2022-09-09T06:53:41;18.50;99.90
5055;DHT22;13829;48.990;8.346;2022-09-09T06:56:20;18.40;99.90
5055;DHT22;13829;48.990;8.346;2022-09-09T06:58:49;18.30;99.90
5055;DHT22;13829;48.990;8.346;2022-09-09T07:01:19;18.30;99.90
5055;DHT22;13829;48.990;8.346;2022-09-09T07:03:48;18.30;99.90
5055;DHT22;13829;48.990;8.346;2022-09-09T07:06:18;18.50;99.90
5055;DHT22;13829;48.990;8.346;2022-09-09T07:08:49;18.60;99.90
5055;DHT22;13829;48.990;8.346;2022-09-09T07:11:20;18.90;99.90
5055;DHT22;13829;48.990;8.346;2022-09-09T07:13:49;19.70;99.90
5055;DHT22;13829;48.990;8.346;2022-09-09T07:16:18;21.00;99.90
5055;DHT22;13829;48.990;8.346;2022-09-09T07:18:48;21.40;99.90
5055;DHT22;13829;48.990;8.346;2022-09-09T07:21:16;21.30;99.90
5055;DHT22;13829;48.990;8.346;2022-09-09T07:23:44;21.10;99.90
5055;DHT22;13829;48.990;8.346;2022-09-09T07:26:13;21.00;99.90
5055;DHT22;13829;48.990;8.346;2022-09-09T07:28:43;21.00;99.90
5055;DHT22;13829;48.990;8.346;2022-09-09T07:31:14;20.90;99.90
5055;DHT22;13829;48.990;8.346;2022-09-09T07:33:43;21.00;99.90
5055;DHT22;13829;48.990;8.346;2022-09-09T07:36:14;21.20;99.90
5055;DHT22;13829;48.990;8.346;2022-09-09T07:38:44;21.00;99.90
5055;DHT22;13829;48.990;8.346;2022-09-09T07:41:15;21.00;99.90
5055;DHT22;13829;48.990;8.346;2022-09-09T07:43:46;20.70;99.90
5055;DHT22;13829;48.990;8.346;2022-09-09T07:46:16;20.70;99.90
5055;DHT22;13829;48.990;8.346;2022-09-09T07:48:45;20.80;99.90
5055;DHT22;13829;48.990;8.346;2022-09-09T07:51:18;20.80;99.90
5055;DHT22;13829;48.990;8.346;2022-09-09T07:53:48;20.80;99.90
5055;DHT22;13829;48.990;8.346;2022-09-09T07:56:19;21.00;99.90
5055;DHT22;13829;48.990;8.346;2022-09-09T07:58:49;22.10;99.90
5055;DHT22;13829;48.990;8.346;2022-09-09T08:01:19;23.20;99.90
5055;DHT22;13829;48.990;8.346;2022-09-09T08:03:53;23.50;99.90
5055;DHT22;13829;48.990;8.346;2022-09-09T08:06:25;23.40;99.90
5055;DHT22;13829;48.990;8.346;2022-09-09T08:08:53;23.00;99.90
5055;DHT22;13829;48.990;8.346;2022-09-09T08:11:22;22.50;99.90
5055;DHT22;13829;48.990;8.346;2022-09-09T08:13:52;22.10;99.90
5055;DHT22;13829;48.990;8.346;2022-09-09T08:16:22;21.90;99.90
5055;DHT22;13829;48.990;8.346;2022-09-09T08:18:51;21.90;99.90
5055;DHT22;13829;48.990;8.346;2022-09-09T08:21:22;22.30;99.90
5055;DHT22;13829;48.990;8.346;2022-09-09T08:23:51;22.60;99.90
5055;DHT22;13829;48.990;8.346;2022-09-09T08:26:21;22.60;99.90
5055;DHT22;13829;48.990;8.346;2022-09-09T08:28:50;22.10;99.90
5055;DHT22;13829;48.990;8.346;2022-09-09T08:31:21;22.00;99.90
5055;DHT22;13829;48.990;8.346;2022-09-09T08:33:50;21.20;99.90
5055;DHT22;13829;48.990;8.346;2022-09-09T08:36:18;21.10;99.90
5055;DHT22;13829;48.990;8.346;2022-09-09T08:38:48;20.90;99.90
5055;DHT22;13829;48.990;8.346;2022-09-09T08:41:37;20.70;99.90
5055;DHT22;13829;48.990;8.346;2022-09-09T08:44:36;20.80;99.90
5055;DHT22;13829;48.990;8.346;2022-09-09T08:47:18;21.30;99.90
5055;DHT22;13829;48.990;8.346;2022-09-09T08:50:02;21.80;99.90
5055;DHT22;13829;48.990;8.346;2022-09-09T08:52:45;22.10;99.90
5055;DHT22;13829;48.990;8.346;2022-09-09T08:55:24;22.10;99.90
5055;DHT22;13829;48.990;8.346;2022-09-09T08:57:57;21.60;99.90
5055;DHT22;13829;48.990;8.346;2022-09-09T09:00:34;21.10;99.90
5055;DHT22;13829;48.990;8.346;2022-09-09T09:03:16;20.80;99.90
5055;DHT22;13829;48.990;8.346;2022-09-09T09:06:00;20.50;99.90
5055;DHT22;13829;48.990;8.346;2022-09-09T09:08:39;20.40;99.90
5055;DHT22;13829;48.990;8.346;2022-09-09T09:11:11;20.30;99.90
5055;DHT22;13829;48.990;8.346;2022-09-09T09:13:43;20.10;99.90
5055;DHT22;13829;48.990;8.346;2022-09-09T09:16:23;20.20;99.90
5055;DHT22;13829;48.990;8.346;2022-09-09T09:18:58;20.30;99.90
5055;DHT22;13829;48.990;8.346;2022-09-09T09:21:36;20.50;99.90
5055;DHT22;13829;48.990;8.346;2022-09-09T09:24:16;20.80;99.90
5055;DHT22;13829;48.990;8.346;2022-09-09T09:26:45;21.20;99.90
5055;DHT22;13829;48.990;8.346;2022-09-09T09:29:14;21.50;99.90
5055;DHT22;13829;48.990;8.346;2022-09-09T09:31:46;21.70;99.90
5055;DHT22;13829;48.990;8.346;2022-09-09T09:34:17;21.60;99.90
5055;DHT22;13829;48.990;8.346;2022-09-09T09:36:52;21.60;99.90
5055;DHT22;13829;48.990;8.346;2022-09-09T09:39:25;21.50;99.90
5055;DHT22;13829;48.990;8.346;2022-09-09T09:41:54;21.50;99.90
5055;DHT22;13829;48.990;8.346;2022-09-09T09:44:25;21.40;99.90
5055;DHT22;13829;48.990;8.346;2022-09-09T09:47:06;21.40;99.90
5055;DHT22;13829;48.990;8.346;2022-09-09T09:49:34;21.30;99.90
5055;DHT22;13829;48.990;8.346;2022-09-09T09:52:01;21.40;99.90
5055;DHT22;13829;48.990;8.346;2022-09-09T09:54:31;21.40;99.90
5055;DHT22;13829;48.990;8.346;2022-09-09T09:57:09;21.20;99.90
5055;DHT22;13829;48.990;8.346;2022-09-09T09:59:38;20.90;99.90
5055;DHT22;13829;48.990;8.346;2022-09-09T10:02:19;20.90;99.90
5055;DHT22;13829;48.990;8.346;2022-09-09T10:05:00;20.80;99.90
5055;DHT22;13829;48.990;8.346;2022-09-09T10:07:28;20.80;99.90
5055;DHT22;13829;48.990;8.346;2022-09-09T10:09:56;20.70;99.90
5055;DHT22;13829;48.990;8.346;2022-09-09T10:12:37;20.70;99.90
5055;DHT22;13829;48.990;8.346;2022-09-09T10:15:31;20.70;99.90
5055;DHT22;13829;48.990;8.346;2022-09-09T10:18:20;20.70;99.90
5055;DHT22;13829;48.990;8.346;2022-09-09T10:21:03;20.70;99.90
5055;DHT22;13829;48.990;8.346;2022-09-09T10:23:52;20.90;99.90
5055;DHT22;13829;48.990;8.346;2022-09-09T10:26:38;21.00;99.90
5055;DHT22;13829;48.990;8.346;2022-09-09T10:29:28;21.10;99.90
5055;DHT22;13829;48.990;8.346;2022-09-09T10:32:25;21.20;99.90
5055;DHT22;13829;48.990;8.346;2022-09-09T10:35:10;21.30;99.90
5055;DHT22;13829;48.990;8.346;2022-09-09T10:38:10;21.30;99.90
5055;DHT22;13829;48.990;8.346;2022-09-09T10:40:45;21.40;99.90
5055;DHT22;13829;48.990;8.346;2022-09-09T10:43:27;21.30;99.90
5055;DHT22;13829;48.990;8.346;2022-09-09T10:46:19;21.40;99.90
5055;DHT22;13829;48.990;8.346;2022-09-09T10:49:05;21.60;99.90
5055;DHT22;13829;48.990;8.346;2022-09-09T10:51:50;21.60;99.90
5055;DHT22;13829;48.990;8.346;2022-09-09T10:54:35;22.00;99.90
5055;DHT22;13829;48.990;8.346;2022-09-09T10:57:14;21.80;99.90
5055;DHT22;13829;48.990;8.346;2022-09-09T10:59:49;21.70;99.90
5055;DHT22;13829;48.990;8.346;2022-09-09T11:02:26;21.60;99.90
5055;DHT22;13829;48.990;8.346;2022-09-09T11:04:57;21.50;99.90
5055;DHT22;13829;48.990;8.346;2022-09-09T11:07:36;21.60;99.90
5055;DHT22;13829;48.990;8.346;2022-09-09T11:10:17;21.60;99.90
5055;DHT22;13829;48.990;8.346;2022-09-09T11:12:54;21.60;99.90
5055;DHT22;13829;48.990;8.346;2022-09-09T11:15:30;21.70;99.90
5055;DHT22;13829;48.990;8.346;2022-09-09T11:18:09;21.70;99.90
5055;DHT22;13829;48.990;8.346;2022-09-09T11:20:40;21.80;99.90
5055;DHT22;13829;48.990;8.346;2022-09-09T11:23:14;21.80;99.90
5055;DHT22;13829;48.990;8.346;2022-09-09T11:25:48;21.70;99.90
5055;DHT22;13829;48.990;8.346;2022-09-09T11:28:40;21.60;99.90
5055;DHT22;13829;48.990;8.346;2022-09-09T11:31:39;21.70;99.90
5055;DHT22;13829;48.990;8.346;2022-09-09T11:34:31;22.00;99.90
5055;DHT22;13829;48.990;8.346;2022-09-09T11:37:21;22.00;99.90
5055;DHT22;13829;48.990;8.346;2022-09-09T11:40:16;22.20;99.90
5055;DHT22;13829;48.990;8.346;2022-09-09T11:42:47;22.10;99.90
5055;DHT22;13829;48.990;8.346;2022-09-09T11:45:22;22.10;99.90
5055;DHT22;13829;48.990;8.346;2022-09-09T11:47:55;22.20;99.90
5055;DHT22;13829;48.990;8.346;2022-09-09T11:50:32;21.80;99.90
5055;DHT22;13829;48.990;8.346;2022-09-09T11:53:22;21.60;99.90
5055;DHT22;13829;48.990;8.346;2022-09-09T11:56:10;21.50;99.90
5055;DHT22;13829;48.990;8.346;2022-09-09T11:58:42;21.60;99.90
5055;DHT22;13829;48.990;8.346;2022-09-09T12:01:34;21.70;99.90
5055;DHT22;13829;48.990;8.346;2022-09-09T12:06:55;21.70;99.90
5055;DHT22;13829;48.990;8.346;2022-09-09T12:09:32;21.60;99.90
5055;DHT22;13829;48.990;8.346;2022-09-09T12:12:30;21.70;99.90
5055;DHT22;13829;48.990;8.346;2022-09-09T12:15:24;21.70;99.90
5055;DHT22;13829;48.990;8.346;2022-09-09T12:17:55;21.70;99.90
5055;DHT22;13829;48.990;8.346;2022-09-09T12:20:30;21.60;99.90
5055;DHT22;13829;48.990;8.346;2022-09-09T12:23:17;21.70;99.90
5055;DHT22;13829;48.990;8.346;2022-09-09T12:26:04;21.80;99.90
5055;DHT22;13829;48.990;8.346;2022-09-09T12:28:55;22.00;99.90
5055;DHT22;13829;48.990;8.346;2022-09-09T12:31:34;22.10;99.90
5055;DHT22;13829;48.990;8.346;2022-09-09T12:34:15;22.10;99.90
5055;DHT22;13829;48.990;8.346;2022-09-09T12:36:46;22.40;99.90
5055;DHT22;13829;48.990;8.346;2022-09-09T12:39:25;22.20;99.90
5055;DHT22;13829;48.990;8.346;2022-09-09T12:41:57;22.20;99.90
5055;DHT22;13829;48.990;8.346;2022-09-09T12:44:26;22.30;99.90
5055;DHT22;13829;48.990;8.346;2022-09-09T12:46:55;22.40;99.90
5055;DHT22;13829;48.990;8.346;2022-09-09T12:49:31;22.60;99.90
5055;DHT22;13829;48.990;8.346;2022-09-09T12:52:03;22.80;99.90
5055;DHT22;13829;48.990;8.346;2022-09-09T12:54:35;22.90;99.90
5055;DHT22;13829;48.990;8.346;2022-09-09T12:57:04;23.00;99.70
5055;DHT22;13829;48.990;8.346;2022-09-09T12:59:38;22.80;99.90
5055;DHT22;13829;48.990;8.346;2022-09-09T13:02:20;22.70;99.90
5055;DHT22;13829;48.990;8.346;2022-09-09T13:04:49;22.40;99.90
5055;DHT22;13829;48.990;8.346;2022-09-09T13:07:17;22.10;99.80
5055;DHT22;13829;48.990;8.346;2022-09-09T13:09:46;22.00;99.90
5055;DHT22;13829;48.990;8.346;2022-09-09T13:12:16;22.10;99.90
5055;DHT22;13829;48.990;8.346;2022-09-09T13:14:49;22.00;99.90
5055;DHT22;13829;48.990;8.346;2022-09-09T13:17:21;21.80;99.90
5055;DHT22;13829;48.990;8.346;2022-09-09T13:19:50;21.60;99.90
5055;DHT22;13829;48.990;8.346;2022-09-09T13:22:21;21.40;99.90
5055;DHT22;13829;48.990;8.346;2022-09-09T13:25:00;21.60;99.90
5055;DHT22;13829;48.990;8.346;2022-09-09T13:27:30;21.70;99.90
5055;DHT22;13829;48.990;8.346;2022-09-09T13:30:00;21.90;99.90
5055;DHT22;13829;48.990;8.346;2022-09-09T13:32:28;22.10;99.90
5055;DHT22;13829;48.990;8.346;2022-09-09T13:34:57;22.30;99.90
5055;DHT22;13829;48.990;8.346;2022-09-09T13:37:33;22.20;99.90
5055;DHT22;13829;48.990;8.346;2022-09-09T13:40:03;21.90;99.90
5055;DHT22;13829;48.990;8.346;2022-09-09T13:42:34;21.70;99.90
5055;DHT22;13829;48.990;8.346;2022-09-09T13:45:18;21.60;99.90
5055;DHT22;13829;48.990;8.346;2022-09-09T13:47:48;21.40;99.90
5055;DHT22;13829;48.990;8.346;2022-09-09T13:50:19;21.30;99.90
5055;DHT22;13829;48.990;8.346;2022-09-09T13:52:47;21.20;99.90
5055;DHT22;13829;48.990;8.346;2022-09-09T13:55:14;21.30;99.90
5055;DHT22;13829;48.990;8.346;2022-09-09T13:57:50;21.40;99.90
5055;DHT22;13829;48.990;8.346;2022-09-09T14:00:20;21.30;99.90
5055;DHT22;13829;48.990;8.346;2022-09-09T14:02:47;21.40;99.90
5055;DHT22;13829;48.990;8.346;2022-09-09T14:05:15;21.50;99.90
5055;DHT22;13829;48.990;8.346;2022-09-09T14:07:42;21.30;99.90
5055;DHT22;13829;48.990;8.346;2022-09-09T14:10:11;21.00;99.90
5055;DHT22;13829;48.990;8.346;2022-09-09T14:12:38;20.60;99.90
5055;DHT22;13829;48.990;8.346;2022-09-09T14:15:07;19.50;99.90
5055;DHT22;13829;48.990;8.346;2022-09-09T14:17:38;18.80;99.90
5055;DHT22;13829;48.990;8.346;2022-09-09T14:20:06;18.50;99.90
5055;DHT22;13829;48.990;8.346;2022-09-09T14:22:35;18.30;99.90
5055;DHT22;13829;48.990;8.346;2022-09-09T14:25:05;18.40;99.90
5055;DHT22;13829;48.990;8.346;2022-09-09T14:27:33;18.40;99.90
5055;DHT22;13829;48.990;8.346;2022-09-09T14:30:00;18.40;99.90
5055;DHT22;13829;48.990;8.346;2022-09-09T14:32:27;18.40;99.90
5055;DHT22;13829;48.990;8.346;2022-09-09T14:34:55;18.50;99.90
5055;DHT22;13829;48.990;8.346;2022-09-09T14:37:22;18.50;99.90
5055;DHT22;13829;48.990;8.346;2022-09-09T14:39:49;18.50;99.90
5055;DHT22;13829;48.990;8.346;2022-09-09T14:42:17;18.40;99.90
5055;DHT22;13829;48.990;8.346;2022-09-09T14:44:44;18.40;99.90
5055;DHT22;13829;48.990;8.346;2022-09-09T14:47:11;18.40;99.90
5055;DHT22;13829;48.990;8.346;2022-09-09T14:49:38;18.50;99.90
5055;DHT22;13829;48.990;8.346;2022-09-09T14:52:06;18.40;99.90
5055;DHT22;13829;48.990;8.346;2022-09-09T14:54:34;18.30;99.90
5055;DHT22;13829;48.990;8.346;2022-09-09T14:57:01;18.20;99.90
5055;DHT22;13829;48.990;8.346;2022-09-09T14:59:28;18.20;99.90
5055;DHT22;13829;48.990;8.346;2022-09-09T15:01:55;18.50;99.90
5055;DHT22;13829;48.990;8.346;2022-09-09T15:04:22;18.90;99.90
5055;DHT22;13829;48.990;8.346;2022-09-09T15:06:49;18.90;99.90
5055;DHT22;13829;48.990;8.346;2022-09-09T15:09:20;19.00;99.90
5055;DHT22;13829;48.990;8.346;2022-09-09T15:11:47;19.00;99.90
5055;DHT22;13829;48.990;8.346;2022-09-09T15:14:14;19.00;99.90
5055;DHT22;13829;48.990;8.346;2022-09-09T15:16:40;19.00;99.90
5055;DHT22;13829;48.990;8.346;2022-09-09T15:19:08;19.10;99.90
5055;DHT22;13829;48.990;8.346;2022-09-09T15:21:36;19.10;99.90
5055;DHT22;13829;48.990;8.346;2022-09-09T15:24:04;19.20;99.90
5055;DHT22;13829;48.990;8.346;2022-09-09T15:26:35;19.50;99.90
5055;DHT22;13829;48.990;8.346;2022-09-09T15:29:04;19.80;99.90
5055;DHT22;13829;48.990;8.346;2022-09-09T15:31:31;20.10;99.90
5055;DHT22;13829;48.990;8.346;2022-09-09T15:34:00;20.30;99.90
5055;DHT22;13829;48.990;8.346;2022-09-09T15:36:30;20.40;99.90
5055;DHT22;13829;48.990;8.346;2022-09-09T15:38:59;20.50;99.90
5055;DHT22;13829;48.990;8.346;2022-09-09T15:41:27;20.50;99.90
5055;DHT22;13829;48.990;8.346;2022-09-09T15:43:57;20.50;99.90
5055;DHT22;13829;48.990;8.346;2022-09-09T15:46:28;20.40;99.90
5055;DHT22;13829;48.990;8.346;2022-09-09T15:48:58;20.30;99.90
5055;DHT22;13829;48.990;8.346;2022-09-09T15:51:30;20.30;99.90
5055;DHT22;13829;48.990;8.346;2022-09-09T15:53:58;20.20;99.90
5055;DHT22;13829;48.990;8.346;2022-09-09T15:56:27;20.10;99.90
5055;DHT22;13829;48.990;8.346;2022-09-09T15:58:58;20.00;99.90
5055;DHT22;13829;48.990;8.346;2022-09-09T16:01:27;19.80;99.90
5055;DHT22;13829;48.990;8.346;2022-09-09T16:03:54;19.60;99.90
5055;DHT22;13829;48.990;8.346;2022-09-09T16:06:23;19.40;99.90
5055;DHT22;13829;48.990;8.346;2022-09-09T16:08:53;19.20;99.90
5055;DHT22;13829;48.990;8.346;2022-09-09T16:11:22;19.10;99.90
5055;DHT22;13829;48.990;8.346;2022-09-09T16:13:51;19.00;99.90
5055;DHT22;13829;48.990;8.346;2022-09-09T16:16:22;18.80;99.90
5055;DHT22;13829;48.990;8.346;2022-09-09T16:18:52;18.70;99.90
5055;DHT22;13829;48.990;8.346;2022-09-09T16:21:22;18.60;99.90
5055;DHT22;13829;48.990;8.346;2022-09-09T16:23:52;18.40;99.90